createdAt,value
2018-07-08T00:00:51.028Z,29.91
2018-07-08T00:03:20.180Z,30.06
2018-07-08T00:05:48.974Z,29.93
2018-07-08T00:08:18.950Z,30.55
2018-07-08T00:10:53.942Z,30.18
2018-07-08T00:13:23.423Z,30.73
2018-07-08T00:15:52.554Z,30.51
2018-07-08T00:18:22.839Z,30.52
2018-07-08T00:20:53.326Z,30.70
2018-07-08T00:23:23.303Z,30.23
2018-07-08T00:25:52.401Z,30.85
2018-07-08T00:28:21.770Z,30.87
2018-07-08T00:30:50.735Z,30.79
2018-07-08T00:33:19.750Z,30.37
2018-07-08T00:35:48.802Z,30.88
2018-07-08T00:38:18.005Z,30.31
2018-07-08T00:40:47.196Z,30.54
2018-07-08T00:43:16.385Z,30.44
2018-07-08T00:45:45.461Z,30.67
2018-07-08T00:48:14.599Z,30.11
2018-07-08T00:50:43.506Z,30.16
2018-07-08T00:53:12.531Z,29.83
2018-07-08T00:55:41.689Z,30.67
2018-07-08T00:58:10.645Z,30.16
2018-07-08T01:00:39.520Z,30.68
2018-07-08T01:03:09.340Z,30.17
2018-07-08T01:05:38.269Z,30.37
2018-07-08T01:08:07.163Z,30.49
2018-07-08T01:10:36.283Z,30.41
2018-07-08T01:13:05.237Z,30.09
2018-07-08T01:15:34.134Z,30.34
2018-07-08T01:18:03.201Z,29.85
2018-07-08T01:20:32.317Z,30.57
2018-07-08T01:23:01.340Z,30.62
2018-07-08T01:25:41.289Z,29.90
2018-07-08T01:28:11.139Z,30.56
2018-07-08T01:30:40.233Z,29.84
2018-07-08T01:33:09.355Z,30.07
2018-07-08T01:35:38.558Z,29.97
2018-07-08T01:38:07.516Z,30.66
2018-07-08T01:40:36.759Z,30.36
2018-07-08T01:43:05.882Z,30.24
2018-07-08T01:45:35.058Z,30.07
2018-07-08T01:48:03.960Z,30.94
2018-07-08T01:50:32.873Z,30.60
2018-07-08T01:53:01.976Z,30.77
2018-07-08T01:55:30.925Z,29.92
2018-07-08T01:58:00.066Z,29.75
2018-07-08T02:00:29.032Z,30.34
2018-07-08T02:02:58.162Z,29.90
2018-07-08T02:05:27.456Z,29.93
2018-07-08T02:07:57.036Z,29.99
2018-07-08T02:10:26.252Z,30.27
2018-07-08T02:12:55.491Z,30.12
2018-07-08T02:15:24.639Z,29.96
2018-07-08T02:17:53.698Z,30.46
2018-07-08T02:20:22.903Z,30.07
2018-07-08T02:22:51.910Z,29.76
2018-07-08T02:25:21.147Z,29.86
2018-07-08T02:27:50.282Z,29.84
2018-07-08T02:30:19.348Z,30.21
2018-07-08T02:32:48.464Z,30.18
2018-07-08T02:35:17.561Z,29.64
2018-07-08T02:37:46.733Z,30.10
2018-07-08T02:40:15.803Z,30.09
2018-07-08T02:42:44.874Z,30.23
2018-07-08T02:45:14.115Z,29.89
2018-07-08T02:47:43.210Z,30.28
2018-07-08T02:50:12.122Z,29.86
2018-07-08T02:52:41.671Z,30.10
2018-07-08T02:55:10.783Z,29.82
2018-07-08T02:57:39.709Z,29.56
2018-07-08T03:00:08.852Z,30.10
2018-07-08T03:02:37.690Z,30.26
2018-07-08T03:05:06.856Z,29.87
2018-07-08T03:07:35.784Z,30.09
2018-07-08T03:10:04.774Z,29.72
2018-07-08T03:12:33.981Z,29.81
2018-07-08T03:15:02.966Z,29.95
2018-07-08T03:17:32.128Z,30.08
2018-07-08T03:20:01.310Z,29.88
2018-07-08T03:22:30.240Z,29.43
2018-07-08T03:24:59.258Z,29.80
2018-07-08T03:27:28.179Z,29.43
2018-07-08T03:29:57.133Z,29.29
2018-07-08T03:32:26.040Z,29.47
2018-07-08T03:34:55.195Z,29.70
2018-07-08T03:37:24.230Z,29.56
2018-07-08T03:39:53.172Z,28.99
2018-07-08T03:42:22.166Z,29.66
2018-07-08T03:44:51.462Z,29.52
2018-07-08T03:47:20.362Z,28.72
2018-07-08T03:49:49.289Z,29.45
2018-07-08T03:52:18.400Z,29.58
2018-07-08T03:54:47.547Z,29.71
2018-07-08T03:57:16.498Z,29.33
2018-07-08T03:59:45.485Z,29.48
2018-07-08T04:02:14.638Z,28.75
2018-07-08T04:04:43.667Z,29.25
2018-07-08T04:07:12.525Z,29.12
2018-07-08T04:09:41.585Z,28.57
2018-07-08T04:12:10.612Z,29.61
2018-07-08T04:14:39.635Z,28.50
2018-07-08T04:17:08.714Z,29.33
2018-07-08T04:19:37.832Z,28.57
2018-07-08T04:22:06.706Z,29.03
2018-07-08T04:24:35.952Z,28.52
2018-07-08T04:27:05.195Z,28.51
2018-07-08T04:29:34.116Z,29.05
2018-07-08T04:32:03.213Z,28.51
2018-07-08T04:34:32.369Z,28.92
2018-07-08T04:37:01.371Z,28.42
2018-07-08T04:39:31.357Z,28.30
2018-07-08T04:42:00.830Z,29.14
2018-07-08T04:44:30.134Z,28.38
2018-07-08T04:46:59.439Z,28.33
2018-07-08T04:49:28.240Z,28.87
2018-07-08T04:51:57.389Z,29.02
2018-07-08T04:54:26.284Z,28.13
2018-07-08T04:56:55.153Z,28.04
2018-07-08T04:59:24.203Z,28.54
2018-07-08T05:01:53.193Z,28.51
2018-07-08T05:04:22.295Z,28.35
2018-07-08T05:06:51.200Z,28.43
2018-07-08T05:09:20.246Z,27.84
2018-07-08T05:11:49.584Z,28.73
2018-07-08T05:14:18.584Z,28.37
2018-07-08T05:16:47.517Z,28.38
2018-07-08T05:19:16.362Z,28.13
2018-07-08T05:21:45.413Z,28.10
2018-07-08T05:24:14.637Z,28.75
2018-07-08T05:26:43.608Z,28.69
2018-07-08T05:29:12.662Z,28.08
2018-07-08T05:31:41.763Z,28.59
2018-07-08T05:34:10.901Z,28.55
2018-07-08T05:36:40.205Z,28.08
2018-07-08T05:39:09.040Z,28.56
2018-07-08T05:41:37.930Z,27.80
2018-07-08T05:44:06.882Z,27.94
2018-07-08T05:46:35.969Z,27.64
2018-07-08T05:49:05.012Z,27.59
2018-07-08T05:51:33.855Z,28.04
2018-07-08T05:54:02.848Z,27.75
2018-07-08T05:56:31.924Z,28.38
2018-07-08T05:59:00.646Z,28.29
2018-07-08T06:01:29.489Z,28.14
2018-07-08T06:03:58.513Z,27.88
2018-07-08T06:06:27.323Z,27.86
2018-07-08T06:08:56.346Z,28.00
2018-07-08T06:11:25.294Z,28.15
2018-07-08T06:13:54.825Z,27.53
2018-07-08T06:16:23.865Z,28.01
2018-07-08T06:18:53.046Z,28.26
2018-07-08T06:21:21.957Z,28.22
2018-07-08T06:23:51.172Z,28.16
2018-07-08T06:26:20.390Z,27.85
2018-07-08T06:28:49.538Z,27.75
2018-07-08T06:31:18.351Z,27.47
2018-07-08T06:33:47.575Z,27.82
2018-07-08T06:36:16.419Z,27.35
2018-07-08T06:38:45.511Z,27.43
2018-07-08T06:41:14.574Z,27.88
2018-07-08T06:43:43.645Z,28.00
2018-07-08T06:46:12.690Z,27.37
2018-07-08T06:48:41.617Z,27.79
2018-07-08T06:51:10.626Z,27.48
2018-07-08T06:53:39.776Z,28.09
2018-07-08T06:56:08.960Z,27.49
2018-07-08T06:58:37.918Z,27.41
2018-07-08T07:01:06.858Z,27.45
2018-07-08T07:03:35.976Z,27.26
2018-07-08T07:06:05.058Z,28.12
2018-07-08T07:08:34.356Z,27.83
2018-07-08T07:11:03.533Z,27.46
2018-07-08T07:13:32.684Z,27.50
2018-07-08T07:16:01.879Z,28.05
2018-07-08T07:18:31.477Z,27.74
2018-07-08T07:21:00.836Z,27.85
2018-07-08T07:23:29.590Z,27.08
2018-07-08T07:25:58.540Z,27.56
2018-07-08T07:28:27.601Z,27.64
2018-07-08T07:30:56.751Z,27.60
2018-07-08T07:33:26.131Z,28.03
2018-07-08T07:35:55.240Z,27.86
2018-07-08T07:38:24.181Z,27.35
2018-07-08T07:40:53.233Z,28.00
2018-07-08T07:43:22.405Z,27.65
2018-07-08T07:45:51.515Z,27.77
2018-07-08T07:48:20.574Z,27.52
2018-07-08T07:50:49.605Z,27.77
2018-07-08T07:53:18.618Z,27.97
2018-07-08T07:55:47.609Z,27.98
2018-07-08T07:58:16.627Z,27.17
2018-07-08T08:00:45.802Z,27.56
2018-07-08T08:03:14.874Z,27.53
2018-07-08T08:05:43.885Z,27.47
2018-07-08T08:08:12.894Z,27.67
2018-07-08T08:10:42.132Z,27.32
2018-07-08T08:13:11.379Z,27.83
2018-07-08T08:15:40.452Z,27.95
2018-07-08T08:18:09.626Z,27.09
2018-07-08T08:20:38.821Z,27.61
2018-07-08T08:23:07.867Z,27.27
2018-07-08T08:25:36.778Z,27.68
2018-07-08T08:28:05.945Z,27.36
2018-07-08T08:30:34.965Z,28.14
2018-07-08T08:33:04.264Z,27.15
2018-07-08T08:35:33.516Z,27.25
2018-07-08T08:38:02.784Z,28.14
2018-07-08T08:40:31.934Z,27.96
2018-07-08T08:43:00.955Z,27.40
2018-07-08T08:45:30.621Z,27.50
2018-07-08T08:47:59.732Z,28.21
2018-07-08T08:50:28.916Z,28.10
2018-07-08T08:52:58.000Z,28.44
2018-07-08T08:55:27.009Z,28.36
2018-07-08T08:57:56.098Z,27.66
2018-07-08T09:00:25.240Z,28.40
2018-07-08T09:02:54.284Z,28.02
2018-07-08T09:05:23.229Z,27.96
2018-07-08T09:07:52.284Z,28.40
2018-07-08T09:10:21.337Z,28.52
2018-07-08T09:12:50.548Z,28.47
2018-07-08T09:15:19.723Z,27.92
2018-07-08T09:17:49.078Z,28.49
2018-07-08T09:20:18.200Z,27.68
2018-07-08T09:22:47.401Z,27.92
2018-07-08T09:25:16.469Z,28.53
2018-07-08T09:27:45.386Z,27.96
2018-07-08T09:30:14.654Z,28.19
2018-07-08T09:32:43.658Z,28.17
2018-07-08T09:35:12.595Z,28.54
2018-07-08T09:37:41.807Z,28.47
2018-07-08T09:40:10.909Z,27.87
2018-07-08T09:42:40.293Z,27.92
2018-07-08T09:45:09.254Z,27.96
2018-07-08T09:47:38.384Z,28.14
2018-07-08T09:50:07.498Z,28.79
2018-07-08T09:52:36.615Z,28.55
2018-07-08T09:55:06.600Z,28.79
2018-07-08T09:57:35.849Z,27.97
2018-07-08T10:00:05.500Z,27.99
2018-07-08T10:02:35.898Z,28.66
2018-07-08T10:05:06.149Z,29.51
2018-07-08T10:07:35.313Z,29.80
2018-07-08T10:10:04.727Z,29.47
2018-07-08T10:12:33.684Z,29.71
2018-07-08T10:15:02.819Z,30.04
2018-07-08T10:17:31.939Z,29.96
2018-07-08T10:20:00.955Z,31.58
2018-07-08T10:22:30.121Z,31.04
2018-07-08T10:24:59.003Z,30.78
2018-07-08T10:27:40.736Z,31.22
2018-07-08T10:30:09.926Z,31.71
2018-07-08T10:32:39.253Z,32.18
2018-07-08T10:35:16.937Z,31.34
2018-07-08T10:37:46.133Z,32.21
2018-07-08T10:40:15.384Z,32.66
2018-07-08T10:42:44.334Z,32.45
2018-07-08T10:45:13.469Z,33.09
2018-07-08T10:47:43.230Z,33.50
2018-07-08T10:50:12.612Z,33.24
2018-07-08T10:52:41.885Z,33.76
2018-07-08T10:55:10.725Z,33.48
2018-07-08T10:57:39.873Z,33.69
2018-07-08T11:00:08.860Z,34.22
2018-07-08T11:15:38.120Z,35.90
2018-07-08T11:18:07.396Z,35.91
2018-07-08T11:20:36.283Z,35.43
2018-07-08T11:23:05.092Z,35.10
2018-07-08T11:25:33.986Z,35.75
2018-07-08T11:28:03.146Z,34.98
2018-07-08T11:30:31.992Z,35.57
2018-07-08T11:33:01.449Z,35.46
2018-07-08T11:35:30.749Z,35.18
2018-07-08T11:37:59.935Z,35.10
2018-07-08T11:40:29.098Z,35.19
2018-07-08T11:42:58.996Z,35.75
2018-07-08T11:45:27.957Z,35.98
2018-07-08T11:47:56.977Z,35.47
2018-07-08T11:50:25.828Z,35.97
2018-07-08T11:52:54.957Z,35.01
2018-07-08T11:55:24.122Z,35.69
2018-07-08T11:57:53.146Z,35.86
2018-07-08T12:00:22.092Z,36.25
2018-07-08T12:02:51.048Z,35.85
2018-07-08T12:05:19.913Z,36.66
2018-07-08T12:07:48.827Z,36.82
2018-07-08T12:10:17.722Z,36.90
2018-07-08T12:12:46.593Z,36.97
2018-07-08T12:15:15.972Z,36.32
2018-07-08T12:17:44.865Z,37.16
2018-07-08T12:20:13.896Z,36.18
2018-07-08T12:22:42.783Z,36.69
2018-07-08T12:25:11.735Z,36.22
2018-07-08T12:27:40.627Z,36.75
2018-07-08T12:30:09.593Z,35.93
2018-07-08T12:32:39.575Z,36.13
2018-07-08T12:35:08.834Z,35.84
2018-07-08T12:37:37.749Z,36.28
2018-07-08T12:40:07.026Z,36.66
2018-07-08T12:42:35.965Z,36.73
2018-07-08T12:45:05.192Z,35.87
2018-07-08T12:47:34.634Z,36.46
2018-07-08T12:50:03.874Z,36.85
2018-07-08T12:52:32.871Z,36.86
2018-07-08T12:55:02.074Z,37.23
2018-07-08T12:57:31.220Z,37.37
2018-07-08T13:00:00.389Z,36.88
2018-07-08T13:02:29.708Z,36.97
2018-07-08T13:04:58.920Z,37.26
2018-07-08T13:07:27.933Z,37.22
2018-07-08T13:09:56.748Z,37.24
2018-07-08T13:12:25.943Z,36.69
2018-07-08T13:14:55.203Z,36.43
2018-07-08T13:17:24.188Z,37.09
2018-07-08T13:19:53.215Z,37.16
2018-07-08T13:22:22.101Z,36.32
2018-07-08T13:24:51.260Z,37.12
2018-07-08T13:27:20.319Z,36.21
2018-07-08T13:29:49.400Z,36.73
2018-07-08T13:32:18.512Z,36.46
2018-07-08T13:34:47.510Z,36.78
2018-07-08T13:37:16.844Z,36.88
2018-07-08T13:39:45.807Z,35.95
2018-07-08T13:42:14.928Z,36.09
2018-07-08T13:57:43.928Z,35.50
2018-07-08T14:00:13.129Z,35.85
2018-07-08T14:02:42.220Z,36.00
2018-07-08T14:05:11.500Z,36.00
2018-07-08T14:07:40.697Z,35.79
2018-07-08T14:10:10.048Z,35.74
2018-07-08T14:12:39.227Z,36.62
2018-07-08T14:15:08.278Z,35.87
2018-07-08T14:17:37.593Z,36.55
2018-07-08T14:20:06.923Z,36.65
2018-07-08T14:22:36.101Z,35.87
2018-07-08T14:25:05.095Z,35.98
2018-07-08T14:27:34.242Z,36.52
2018-07-08T14:30:03.668Z,36.19
2018-07-08T14:32:32.992Z,35.95
2018-07-08T14:35:02.074Z,36.29
2018-07-08T14:37:31.175Z,36.27
2018-07-08T14:40:00.182Z,36.32
2018-07-08T14:42:29.266Z,35.76
2018-07-08T14:44:58.307Z,36.47
2018-07-08T14:47:27.606Z,36.59
2018-07-08T14:49:56.713Z,36.35
2018-07-08T14:52:25.912Z,36.60
2018-07-08T14:54:54.763Z,37.17
2018-07-08T14:57:23.738Z,36.97
2018-07-08T14:59:52.659Z,36.89
2018-07-08T15:02:21.519Z,37.06
2018-07-08T15:04:50.787Z,36.31
2018-07-08T15:07:19.958Z,36.17
2018-07-08T15:09:49.634Z,36.16
2018-07-08T15:12:18.493Z,36.20
2018-07-08T15:14:47.615Z,36.59
2018-07-08T15:17:16.517Z,35.64
2018-07-08T15:19:45.503Z,36.18
2018-07-08T15:22:14.761Z,36.40
2018-07-08T15:24:43.920Z,36.74
2018-07-08T15:27:13.156Z,36.46
2018-07-08T15:29:42.208Z,36.34
2018-07-08T15:32:11.457Z,36.10
2018-07-08T15:34:40.946Z,36.04
2018-07-08T15:37:10.807Z,35.63
2018-07-08T15:39:40.126Z,35.86
2018-07-08T15:42:09.366Z,35.92
2018-07-08T15:44:38.752Z,36.22
2018-07-08T15:47:08.301Z,35.95
2018-07-08T15:49:37.418Z,35.42
2018-07-08T15:52:06.637Z,35.70
2018-07-08T15:54:35.762Z,35.83
2018-07-08T15:57:05.030Z,35.62
2018-07-08T15:59:34.229Z,35.46
2018-07-08T16:02:03.347Z,35.62
2018-07-08T16:04:32.749Z,35.05
2018-07-08T16:07:02.087Z,35.20
2018-07-08T16:09:31.384Z,35.17
2018-07-08T16:12:01.865Z,34.90
2018-07-08T16:14:31.199Z,35.51
2018-07-08T16:17:00.405Z,35.22
2018-07-08T16:19:29.761Z,35.43
2018-07-08T16:21:58.994Z,35.18
2018-07-08T16:24:27.859Z,35.33
2018-07-08T16:26:57.253Z,34.61
2018-07-08T16:29:26.572Z,35.40
2018-07-08T16:31:55.902Z,35.32
2018-07-08T16:34:25.097Z,34.76
2018-07-08T16:36:54.764Z,35.25
2018-07-08T16:39:24.180Z,34.79
2018-07-08T16:41:53.340Z,34.58
2018-07-08T16:44:22.704Z,34.24
2018-07-08T16:46:51.763Z,34.33
2018-07-08T16:49:21.022Z,34.07
2018-07-08T16:51:50.629Z,35.01
2018-07-08T16:54:20.209Z,34.80
2018-07-08T16:56:49.494Z,34.73
2018-07-08T16:59:18.778Z,34.68
2018-07-08T17:01:48.156Z,34.06
2018-07-08T17:04:17.477Z,34.42
2018-07-08T17:06:46.605Z,34.79
2018-07-08T17:09:15.794Z,33.82
2018-07-08T17:11:45.205Z,34.18
2018-07-08T17:14:14.427Z,34.18
2018-07-08T17:16:43.611Z,34.15
2018-07-08T17:19:12.915Z,34.53
2018-07-08T17:21:42.347Z,33.75
2018-07-08T17:24:11.798Z,34.34
2018-07-08T17:26:41.207Z,34.27
2018-07-08T17:29:10.488Z,34.39
2018-07-08T17:31:39.729Z,34.04
2018-07-08T17:34:08.999Z,33.69
2018-07-08T17:36:39.338Z,33.81
2018-07-08T17:39:08.974Z,34.01
2018-07-08T17:41:38.548Z,34.35
2018-07-08T17:44:08.418Z,33.51
2018-07-08T17:46:37.564Z,34.42
2018-07-08T17:49:07.239Z,33.59
2018-07-08T17:51:36.803Z,33.73
2018-07-08T17:54:07.221Z,33.44
2018-07-08T17:56:36.871Z,33.99
2018-07-08T17:59:06.260Z,33.57
2018-07-08T18:01:35.767Z,33.75
2018-07-08T18:04:05.558Z,33.72
2018-07-08T18:06:35.011Z,34.25
2018-07-08T18:09:05.535Z,34.21
2018-07-08T18:11:35.428Z,33.38
2018-07-08T18:14:06.215Z,33.96
2018-07-08T18:16:36.131Z,34.34
2018-07-08T18:19:06.040Z,34.43
2018-07-08T18:21:35.334Z,33.98
2018-07-08T18:24:04.402Z,33.88
2018-07-08T18:26:33.650Z,34.18
2018-07-08T18:29:02.963Z,34.37
2018-07-08T18:31:32.006Z,33.73
2018-07-08T18:34:00.847Z,33.67
2018-07-08T18:36:30.367Z,34.23
2018-07-08T18:38:59.566Z,34.20
2018-07-08T18:41:28.523Z,33.80
2018-07-08T18:43:58.037Z,33.98
2018-07-08T18:46:27.407Z,34.51
2018-07-08T18:48:56.726Z,34.28
2018-07-08T18:51:25.946Z,33.80
2018-07-08T18:53:55.323Z,33.70
2018-07-08T18:56:24.851Z,33.77
2018-07-08T18:58:53.938Z,33.64
2018-07-08T19:01:22.957Z,33.56
2018-07-08T19:03:52.958Z,34.36
2018-07-08T19:06:22.365Z,33.48
2018-07-08T19:08:51.751Z,33.55
2018-07-08T19:11:21.167Z,34.18
2018-07-08T19:13:50.301Z,34.35
2018-07-08T19:16:19.189Z,34.70
2018-07-08T19:18:48.161Z,34.84
2018-07-08T19:21:17.069Z,35.11
2018-07-08T19:23:46.259Z,35.76
2018-07-08T19:26:15.205Z,34.77
2018-07-08T19:28:44.277Z,35.41
2018-07-08T19:31:13.588Z,35.58
2018-07-08T19:33:42.936Z,35.67
2018-07-08T19:36:11.914Z,36.29
2018-07-08T19:38:41.328Z,35.63
2018-07-08T19:41:10.431Z,36.30
2018-07-08T19:43:39.677Z,36.62
2018-07-08T19:46:08.811Z,36.92
2018-07-08T19:48:37.851Z,36.43
2018-07-08T19:51:07.019Z,36.32
2018-07-08T19:53:36.238Z,36.99
2018-07-08T19:56:05.329Z,37.23
2018-07-08T19:58:34.382Z,36.92
2018-07-08T20:01:03.551Z,36.98
2018-07-08T20:03:32.765Z,37.83
2018-07-08T20:06:02.024Z,37.34
2018-07-08T20:08:31.448Z,37.17
2018-07-08T20:11:00.691Z,37.19
2018-07-08T20:13:29.870Z,37.79
2018-07-08T20:15:58.953Z,38.14
2018-07-08T20:18:27.904Z,37.49
2018-07-08T20:20:56.870Z,37.40
2018-07-08T20:23:25.918Z,37.78
2018-07-08T20:25:55.094Z,37.69
2018-07-08T20:28:24.419Z,37.72
2018-07-08T20:30:53.758Z,37.50
2018-07-08T20:33:23.019Z,37.76
2018-07-08T20:35:52.290Z,37.36
2018-07-08T20:38:21.573Z,38.12
2018-07-08T20:40:50.829Z,37.82
2018-07-08T20:43:20.055Z,37.13
2018-07-08T20:45:49.094Z,37.38
2018-07-08T20:48:18.195Z,37.06
2018-07-08T20:50:47.291Z,37.20
2018-07-08T20:53:16.636Z,37.36
2018-07-08T20:55:45.665Z,37.73
2018-07-08T20:58:15.136Z,37.64
2018-07-08T21:00:44.022Z,37.31
2018-07-08T21:03:12.868Z,37.51
2018-07-08T21:05:42.096Z,37.76
2018-07-08T21:08:11.061Z,36.97
2018-07-08T21:10:40.274Z,37.73
2018-07-08T21:13:09.210Z,36.94
2018-07-08T21:15:38.402Z,37.26
2018-07-08T21:18:07.556Z,36.63
2018-07-08T21:20:36.495Z,37.00
2018-07-08T21:23:05.913Z,36.93
2018-07-08T21:25:34.921Z,36.75
2018-07-08T21:28:04.122Z,36.83
2018-07-08T21:30:33.222Z,36.71
2018-07-08T21:33:02.978Z,36.40
2018-07-08T21:35:32.167Z,36.36
2018-07-08T21:38:02.110Z,36.66
2018-07-08T21:40:31.189Z,36.14
2018-07-08T21:43:00.152Z,36.23
2018-07-08T21:45:29.062Z,35.83
2018-07-08T21:47:57.937Z,35.72
2018-07-08T21:50:27.101Z,35.97
2018-07-08T21:52:56.220Z,35.69
2018-07-08T21:55:25.276Z,35.71
2018-07-08T21:57:54.426Z,35.81
2018-07-08T22:00:30.789Z,36.03
2018-07-08T22:03:00.356Z,36.11
2018-07-08T22:05:30.612Z,35.62
2018-07-08T22:08:04.626Z,35.33
2018-07-08T22:10:34.081Z,34.97
2018-07-08T22:13:04.062Z,35.42
2018-07-08T22:15:33.172Z,34.79
2018-07-08T22:18:02.236Z,35.46
2018-07-08T22:20:31.186Z,35.20
2018-07-08T22:23:00.138Z,34.82
2018-07-08T22:25:29.197Z,35.49
2018-07-08T22:27:58.250Z,34.98
2018-07-08T22:30:27.433Z,35.10
2018-07-08T22:32:56.588Z,35.11
2018-07-08T22:35:25.724Z,34.69
2018-07-08T22:37:54.885Z,34.38
2018-07-08T22:40:23.958Z,34.33
2018-07-08T22:42:53.025Z,34.17
2018-07-08T22:45:22.112Z,34.25
2018-07-08T22:47:51.398Z,34.22
2018-07-08T22:50:20.496Z,34.76
2018-07-08T22:52:49.742Z,34.60
2018-07-08T22:55:18.855Z,33.96
2018-07-08T22:57:47.977Z,34.52
2018-07-08T23:00:28.252Z,33.76
2018-07-08T23:03:08.621Z,33.48
2018-07-08T23:05:37.865Z,34.59
2018-07-08T23:08:06.946Z,33.78
2018-07-08T23:10:36.181Z,34.42
2018-07-08T23:13:05.537Z,33.71
2018-07-08T23:15:34.712Z,34.07
2018-07-08T23:18:04.037Z,33.72
2018-07-08T23:20:33.167Z,33.66
2018-07-08T23:23:02.277Z,34.08
2018-07-08T23:25:31.392Z,34.13
2018-07-08T23:28:00.630Z,33.69
2018-07-08T23:30:29.790Z,33.87
2018-07-08T23:32:58.899Z,33.71
2018-07-08T23:35:27.894Z,34.11
2018-07-08T23:37:57.030Z,33.74
2018-07-08T23:40:26.287Z,33.77
2018-07-08T23:42:55.708Z,33.68
2018-07-08T23:45:24.735Z,33.98
2018-07-08T23:47:53.773Z,33.37
2018-07-08T23:50:22.726Z,33.73
2018-07-08T23:52:51.844Z,33.46
